Time;durP1;ratioP1;P1;durP2;ratioP2;P2;SDS_P1;SDS_P2;PMS_P1;PMS_P2;Temp;Humidity;BMP_temperature;BMP_pressure;BME280_temperature;BME280_humidity;BME280_pressure;Samples;Min_cycle;Max_cycle;Signal;HPM_P1;HPM_P2
2022/07/14 00:00:43;;;;;;;;;;;;;;;15.57;100.00;98892.22;1722807;82;21542;-61
2022/07/14 00:03:09;;;;;;;;;;;;;;;15.57;100.00;98896.33;1724864;81;20142;-60
2022/07/14 00:05:36;;;;;;;3.52;0.40;;;;;;;15.52;100.00;98899.23;1734473;82;20122;-61
2022/07/14 00:08:04;;;;;;;4.28;0.70;;;;;;;15.49;100.00;98898.51;1706672;82;21124;-61
2022/07/14 00:10:30;;;;;;;2.15;0.40;;;;;;;15.51;100.00;98910.54;1723586;82;21343;-60
2022/07/14 00:12:57;;;;;;;2.95;0.45;;;;;;;15.53;100.00;98909.64;1713783;82;21066;-61
2022/07/14 00:15:25;;;;;;;5.15;0.57;;;;;;;15.55;100.00;98908.77;1711872;82;21098;-61
2022/07/14 00:17:52;;;;;;;2.65;0.50;;;;;;;15.56;100.00;98913.10;1721103;82;21106;-61
2022/07/14 00:20:19;;;;;;;3.98;0.50;;;;;;;15.59;100.00;98916.59;1721007;82;21072;-61
2022/07/14 00:22:47;;;;;;;1.12;0.35;;;;;;;15.59;100.00;98912.48;1709113;82;21071;-61
2022/07/14 00:25:13;;;;;;;;;;;;;;;15.60;100.00;98923.67;1730762;82;21023;-61
2022/07/14 00:27:39;;;;;;;1.32;0.47;;;;;;;15.59;100.00;98920.12;1724915;82;20132;-60
2022/07/14 00:30:08;;;;;;;2.25;0.40;;;;;;;15.54;100.00;98915.38;1720447;82;21084;-61
2022/07/14 00:32:35;;;;;;;3.05;0.37;;;;;;;15.52;100.00;98914.91;1722374;82;21011;-61
2022/07/14 00:35:06;;;;;;;3.40;0.50;;;;;;;15.53;100.00;98917.30;1719978;82;21141;-61
2022/07/14 00:37:34;;;;;;;2.55;0.40;;;;;;;15.54;100.00;98914.00;1722746;82;21019;-61
2022/07/14 00:40:04;;;;;;;;;;;;;;;15.53;100.00;98920.05;1723594;82;21054;-61
2022/07/14 00:42:38;;;;;;;2.02;0.50;;;;;;;15.55;100.00;98922.48;1722059;82;20450;-61
2022/07/14 00:45:11;;;;;;;1.57;0.50;;;;;;;15.51;100.00;98928.37;1719662;81;21032;-61
2022/07/14 00:47:38;;;;;;;4.40;0.50;;;;;;;15.51;100.00;98935.23;1726601;81;21067;-61
2022/07/14 00:50:07;;;;;;;1.90;0.37;;;;;;;15.54;100.00;98934.02;1735783;81;21561;-60
2022/07/14 00:52:34;;;;;;;2.25;0.50;;;;;;;15.55;100.00;98934.83;1715065;82;21050;-61
2022/07/14 00:55:01;;;;;;;1.87;0.50;;;;;;;15.57;100.00;98940.78;1727881;81;21079;-61
2022/07/14 00:57:28;;;;;;;3.98;0.50;;;;;;;15.53;100.00;98931.58;1693137;83;21014;-61
2022/07/14 00:59:55;;;;;;;0.78;0.50;;;;;;;15.53;100.00;98928.84;1663295;85;21036;-61
2022/07/14 01:02:22;;;;;;;3.15;0.55;;;;;;;15.54;100.00;98931.83;1666359;85;21095;-60
2022/07/14 01:04:49;;;;;;;1.67;0.50;;;;;;;15.55;100.00;98943.05;1705904;84;21523;-61
2022/07/14 01:07:16;;;;;;;1.92;0.55;;;;;;;15.56;100.00;98947.39;1693689;83;21011;-61
2022/07/14 01:09:43;;;;;;;3.00;0.50;;;;;;;15.53;100.00;98937.88;1692583;83;21093;-60
2022/07/14 01:12:11;;;;;;;1.80;0.40;;;;;;;15.56;100.00;98935.05;1702810;84;21501;-60
2022/07/14 01:14:37;;;;;;;;;;;;;;;15.54;100.00;98936.76;1662044;86;21121;-60
2022/07/14 01:17:05;;;;;;;2.00;0.40;;;;;;;15.55;100.00;98937.56;1673022;85;20139;-61
2022/07/14 01:19:33;;;;;;;0.57;0.30;;;;;;;15.49;100.00;98942.95;1672653;84;21066;-60
2022/07/14 01:22:00;;;;;;;2.40;0.37;;;;;;;15.48;100.00;98947.59;1668231;85;21574;-61
2022/07/14 01:24:27;;;;;;;1.80;0.50;;;;;;;15.47;100.00;98955.61;1676258;85;21568;-61
2022/07/14 01:26:55;;;;;;;1.37;0.47;;;;;;;15.43;100.00;98954.63;1670107;84;21047;-61
2022/07/14 01:29:21;;;;;;;;;;;;;;;15.40;100.00;98958.84;1681001;83;21034;-61
2022/07/14 01:31:48;;;;;;;1.12;0.40;;;;;;;15.40;100.00;98968.44;1682330;85;20107;-62
2022/07/14 01:34:15;;;;;;;2.17;0.37;;;;;;;15.36;100.00;98958.42;1658596;85;21067;-61
2022/07/14 01:36:42;;;;;;;;;;;;;;;15.32;100.00;98956.88;1689531;84;21609;-60
2022/07/14 01:39:10;;;;;;;2.98;0.40;;;;;;;15.31;100.00;98958.56;1682064;84;20191;-61
2022/07/14 01:41:38;;;;;;;1.55;0.50;;;;;;;15.23;100.00;98960.75;1684935;85;21045;-60
2022/07/14 01:44:04;;;;;;;1.67;0.35;;;;;;;15.21;100.00;98956.95;1682328;84;21103;-61
2022/07/14 01:46:30;;;;;;;;;;;;;;;15.19;100.00;98961.15;1688092;83;21060;-61
2022/07/14 01:48:57;;;;;;;1.10;0.45;;;;;;;15.15;100.00;98962.35;1685003;83;20140;-61
2022/07/14 01:51:24;;;;;;;3.02;0.40;;;;;;;15.09;100.00;98969.69;1678411;85;21446;-60
2022/07/14 01:53:51;;;;;;;4.20;0.40;;;;;;;15.08;100.00;98969.43;1674821;84;21537;-62
2022/07/14 01:56:18;;;;;;;3.20;0.40;;;;;;;15.07;100.00;98970.55;1679871;84;21036;-61
2022/07/14 01:58:45;;;;;;;1.37;0.45;;;;;;;15.08;100.00;98974.91;1719341;81;21050;-61
2022/07/14 02:04:01;;;;;;;2.27;0.40;;;;;;;15.08;100.00;98974.91;1696334;83;21603;-61
2022/07/14 02:06:29;;;;;;;1.35;0.50;;;;;;;15.01;100.00;98971.83;1687625;83;20960;-62
2022/07/14 02:08:58;;;;;;;0.98;0.40;;;;;;;15.02;100.00;98976.98;1695945;84;21067;-61
2022/07/14 02:14:11;;;;;;;1.75;0.40;;;;;;;15.00;100.00;98997.06;1694376;83;21595;-61
2022/07/14 02:16:37;;;;;;;;;;;;;;;14.98;100.00;98995.21;1720543;81;21065;-60
2022/07/14 02:19:04;;;;;;;2.15;0.60;;;;;;;14.96;100.00;98994.70;1723250;82;20132;-60
2022/07/14 02:21:31;;;;;;;4.12;0.95;;;;;;;14.90;100.00;98991.31;1726500;82;21050;-60
2022/07/14 02:23:57;;;;;;;2.15;0.40;;;;;;;14.93;100.00;98999.45;1725491;82;21070;-61
2022/07/14 02:26:25;;;;;;;2.80;0.60;;;;;;;14.92;100.00;99003.31;1721849;81;21035;-61
2022/07/14 02:28:52;;;;;;;2.02;0.50;;;;;;;14.88;100.00;99006.44;1713580;82;21086;-61
2022/07/14 02:31:18;;;;;;;;;;;;;;;14.88;100.00;99011.92;1725932;82;21104;-61
2022/07/14 02:33:45;;;;;;;1.42;0.50;;;;;;;14.87;100.00;99013.88;1736612;81;20422;-61
2022/07/14 02:36:12;;;;;;;2.22;0.50;;;;;;;14.82;100.00;99011.27;1728486;81;20999;-61
2022/07/14 02:38:39;;;;;;;4.45;0.50;;;;;;;14.83;100.00;99014.82;1705143;83;21616;-61
2022/07/14 02:41:06;;;;;;;1.12;0.50;;;;;;;14.83;100.00;99019.74;1723134;81;20967;-61
2022/07/14 02:43:32;;;;;;;;;;;;;;;14.82;100.00;99022.23;1719281;82;21354;-61
2022/07/14 02:45:59;;;;;;;1.17;0.57;;;;;;;14.84;100.00;99019.97;1713108;82;20136;-62
2022/07/14 02:48:26;;;;;;;2.27;0.70;;;;;;;14.78;100.00;99036.87;1714196;82;21059;-62
2022/07/14 02:51:02;;;;;;;3.77;0.70;;;;;;;14.76;100.00;99025.43;1715772;82;21039;-62
2022/07/14 02:53:29;;;;;;;2.22;0.60;;;;;;;14.76;100.00;99035.83;1714703;82;21138;-62
2022/07/14 02:55:56;;;;;;;2.42;0.50;;;;;;;14.75;100.00;99035.58;1716180;82;21024;-62
2022/07/14 02:58:27;;;;;;;4.65;0.80;;;;;;;14.76;100.00;99036.39;1716573;82;21360;-62
2022/07/14 03:00:53;;;;;;;2.22;0.53;;;;;;;14.76;100.00;99044.61;1720351;82;21063;-62
2022/07/14 03:03:21;;;;;;;2.75;0.72;;;;;;;14.78;100.00;99052.75;1717627;81;21047;-62
2022/07/14 03:05:48;;;;;;;3.80;0.70;;;;;;;14.79;100.00;99054.38;1721860;82;21026;-62
2022/07/14 03:08:17;;;;;;;2.62;0.78;;;;;;;14.79;100.00;99059.04;1718335;82;21071;-62
2022/07/14 03:10:44;;;;;;;2.17;0.70;;;;;;;14.76;100.00;99048.16;1727207;82;21031;-62
2022/07/14 03:13:11;;;;;;;5.45;0.72;;;;;;;14.76;100.00;99050.90;1715323;82;21032;-62
2022/07/14 03:15:40;;;;;;;1.65;0.60;;;;;;;14.73;100.00;99058.94;1727348;82;21015;-61
2022/07/14 03:18:07;;;;;;;5.28;0.70;;;;;;;14.67;100.00;99060.17;1728204;82;21480;-61
2022/07/14 03:20:35;;;;;;;3.70;0.60;;;;;;;14.66;100.00;99061.32;1711243;82;21062;-61
2022/07/14 03:23:02;;;;;;;2.60;0.90;;;;;;;14.62;100.00;99067.18;1705680;82;21055;-61
2022/07/14 03:25:29;;;;;;;2.10;0.70;;;;;;;14.58;100.00;99073.03;1713808;82;21106;-61
2022/07/14 03:27:57;;;;;;;2.12;0.60;;;;;;;14.53;100.00;99067.67;1716781;82;21682;-61
2022/07/14 03:30:25;;;;;;;3.22;0.62;;;;;;;14.48;100.00;99071.93;1711812;82;21041;-61
2022/07/14 03:32:52;;;;;;;3.37;0.57;;;;;;;14.47;100.00;99069.75;1726244;82;21471;-62
2022/07/14 03:35:19;;;;;;;;;;;;;;;14.53;100.00;99073.97;1718798;82;21108;-61
2022/07/14 03:37:45;;;;;;;4.10;0.70;;;;;;;14.64;100.00;99069.03;1722637;82;20119;-62
2022/07/14 03:40:12;;;;;;;2.45;0.70;;;;;;;14.71;100.00;99074.87;1675572;84;21071;-62
2022/07/14 03:42:39;;;;;;;1.32;0.60;;;;;;;14.87;100.00;99074.16;1707319;82;21508;-62
2022/07/14 03:45:06;;;;;;;4.28;0.70;;;;;;;15.07;100.00;99076.89;1686328;83;21044;-59
2022/07/14 03:47:34;;;;;;;3.15;0.62;;;;;;;15.26;100.00;99071.97;1679770;85;21046;-59
2022/07/14 03:50:01;;;;;;;4.60;1.12;;;;;;;15.48;100.00;99083.37;1718965;82;21047;-60
2022/07/14 03:52:28;;;;;;;2.42;0.80;;;;;;;15.72;100.00;99076.92;1724003;81;20988;-61
2022/07/14 03:54:54;;;;;;;;;;;;;;;15.93;100.00;99072.98;1725888;82;21029;-61
2022/07/14 03:57:22;;;;;;;2.85;0.72;;;;;;;16.09;100.00;99074.09;1724451;82;20162;-61
2022/07/14 03:59:48;;;;;;;1.82;0.53;;;;;;;16.13;100.00;99069.58;1721080;81;21063;-61
2022/07/14 04:02:16;;;;;;;1.15;0.40;;;;;;;16.20;100.00;99067.71;1725117;82;21043;-60
2022/07/14 04:04:42;;;;;;;4.35;0.62;;;;;;;16.39;100.00;99072.30;1710458;82;21075;-60
2022/07/14 04:07:09;;;;;;;4.35;0.60;;;;;;;16.67;100.00;99077.69;1716101;82;21577;-61
2022/07/14 04:09:38;;;;;;;2.05;0.53;;;;;;;16.86;100.00;99075.94;1722349;82;21095;-60
2022/07/14 04:12:06;;;;;;;2.67;0.50;;;;;;;16.92;100.00;99070.48;1723783;82;21019;-61
2022/07/14 04:14:33;;;;;;;4.12;0.60;;;;;;;16.95;100.00;99067.08;1689355;83;21074;-61
2022/07/14 04:17:00;;;;;;;5.80;0.60;;;;;;;17.08;100.00;99077.04;1707470;82;21019;-61
2022/07/14 04:19:27;;;;;;;3.85;0.70;;;;;;;17.19;100.00;99070.04;1717743;82;21106;-60
2022/07/14 04:21:54;;;;;;;1.27;0.53;;;;;;;17.27;100.00;99074.70;1722296;82;21039;-60
2022/07/14 04:24:22;;;;;;;1.47;0.50;;;;;;;17.35;100.00;99074.41;1726295;82;21622;-59
2022/07/14 04:26:49;;;;;;;1.80;0.57;;;;;;;17.34;100.00;99070.86;1729967;82;20975;-61
2022/07/14 04:29:15;;;;;;;2.52;0.75;;;;;;;17.39;100.00;99068.49;1707971;82;21074;-61
2022/07/14 04:31:43;;;;;;;1.82;0.62;;;;;;;17.51;100.00;99076.82;1738187;82;21027;-61
2022/07/14 04:34:11;;;;;;;1.20;0.60;;;;;;;17.62;100.00;99082.77;1731996;82;21083;-59
2022/07/14 04:36:39;;;;;;;2.25;0.60;;;;;;;17.73;100.00;99083.43;1724807;82;20979;-61
2022/07/14 04:39:07;;;;;;;1.12;0.53;;;;;;;17.82;100.00;99081.41;1706137;83;21055;-60
2022/07/14 04:41:36;;;;;;;1.70;0.50;;;;;;;17.94;100.00;99077.12;1727410;82;20932;-60
2022/07/14 04:44:03;;;;;;;2.98;0.50;;;;;;;17.97;100.00;99070.37;1722450;82;21030;-61
2022/07/14 04:46:30;;;;;;;3.60;0.75;;;;;;;18.00;100.00;99081.27;1710431;82;20988;-61
2022/07/14 04:52:03;;;;;;;5.03;0.70;;;;;;;18.05;100.00;99083.27;1717440;82;21006;-61
2022/07/14 04:54:47;;;;;;;2.70;0.62;;;;;;;18.04;100.00;99084.97;1704986;82;21087;-61
2022/07/14 04:57:31;;;;;;;1.90;0.68;;;;;;;18.10;100.00;99091.91;1676370;85;21023;-61
2022/07/14 04:59:58;;;;;;;2.92;0.65;;;;;;;18.14;100.00;99088.72;1706314;83;21111;-60
2022/07/14 05:02:24;;;;;;;4.58;1.00;;;;;;;18.22;100.00;99094.70;1714957;82;21059;-60
2022/07/14 05:04:52;;;;;;;1.85;0.53;;;;;;;18.26;100.00;99091.52;1721257;82;21043;-61
2022/07/14 05:07:20;;;;;;;1.47;0.50;;;;;;;18.42;100.00;99096.65;1722499;82;21043;-60
2022/07/14 05:09:48;;;;;;;4.65;0.70;;;;;;;18.67;100.00;99100.33;1713594;82;21095;-60
2022/07/14 05:12:16;;;;;;;1.37;0.90;;;;;;;19.03;100.00;99099.00;1718361;82;21023;-61
2022/07/14 05:14:44;;;;;;;0.80;0.50;;;;;;;19.23;100.00;99097.31;1721444;81;21566;-61
2022/07/14 05:17:11;;;;;;;2.95;0.50;;;;;;;19.41;100.00;99093.22;1714087;82;21478;-61
2022/07/14 05:19:40;;;;;;;1.95;0.55;;;;;;;19.58;100.00;99094.92;1717079;82;21135;-61
2022/07/14 05:22:06;;;;;;;2.62;0.50;;;;;;;19.65;100.00;99094.58;1711746;82;21459;-61
2022/07/14 05:24:34;;;;;;;1.50;0.50;;;;;;;19.72;100.00;99093.41;1706559;83;21133;-61
2022/07/14 05:27:01;;;;;;;2.95;0.53;;;;;;;19.91;100.00;99090.62;1718837;82;21031;-61
2022/07/14 05:29:29;;;;;;;1.10;0.40;;;;;;;20.01;100.00;99090.13;1658474;85;21127;-61
2022/07/14 05:31:58;;;;;;;1.25;0.35;;;;;;;20.25;100.00;99090.86;1712622;82;21409;-61
2022/07/14 05:34:24;;;;;;;2.10;0.40;;;;;;;20.34;100.00;99091.53;1712845;83;21095;-62
2022/07/14 05:36:52;;;;;;;0.85;0.50;;;;;;;20.39;100.00;99091.88;1712445;82;21494;-61
2022/07/14 05:39:19;;;;;;;1.12;0.50;;;;;;;20.33;100.00;99094.06;1685088;83;21650;-61
2022/07/14 05:41:47;;;;;;;3.52;0.47;;;;;;;20.30;100.00;99087.05;1668877;85;20975;-62
2022/07/14 05:44:14;;;;;;;2.00;0.30;;;;;;;20.34;100.00;99085.20;1707744;83;21363;-62
2022/07/14 05:46:41;;;;;;;1.45;0.40;;;;;;;20.50;100.00;99092.17;1722462;82;21019;-62
2022/07/14 05:49:07;;;;;;;0.78;0.40;;;;;;;20.65;100.00;99090.03;1693361;83;21593;-61
2022/07/14 05:51:34;;;;;;;0.98;0.47;;;;;;;20.81;100.00;99090.27;1670631;84;20974;-62
2022/07/14 05:54:01;;;;;;;1.80;0.55;;;;;;;21.00;100.00;99084.63;1682366;84;21047;-64
2022/07/14 05:58:52;;;;;;;2.58;0.40;;;;;;;21.41;100.00;99077.18;1763723;78;22885;-62
2022/07/14 06:01:20;;;;;;;2.75;0.53;;;;;;;21.31;100.00;99078.54;1723752;81;21031;-62
2022/07/14 06:03:56;;;;;;;2.40;0.40;;;;;;;21.42;100.00;99085.72;1718676;81;21580;-62
2022/07/14 06:06:18;;;;;;;0.88;0.40;;;;;;;21.76;100.00;99086.89;1723069;81;21094;-63
2022/07/14 06:08:46;;;;;;;0.80;0.40;;;;;;;22.33;100.00;99086.19;1717493;81;21059;-63
2022/07/14 06:11:13;;;;;;;2.37;0.68;;;;;;;22.33;100.00;99086.19;1724786;81;21490;-63
2022/07/14 06:13:41;;;;;;;1.32;0.50;;;;;;;22.36;100.00;99081.88;1725950;81;21546;-64
2022/07/14 06:16:10;;;;;;;4.15;0.70;;;;;;;22.20;100.00;99084.16;1722047;83;21021;-62
2022/07/14 06:18:36;;;;;;;2.33;0.50;;;;;;;22.29;100.00;99085.30;1725417;81;21090;-61
2022/07/14 06:21:08;;;;;;;1.67;0.50;;;;;;;22.40;100.00;99082.17;1709524;83;21027;-62
2022/07/14 06:23:36;;;;;;;2.67;0.55;;;;;;;22.47;100.00;99088.44;1701905;81;21132;-62
2022/07/14 06:26:10;;;;;;;2.47;0.40;;;;;;;22.83;100.00;99081.05;1694336;81;21054;-63
2022/07/14 06:28:37;;;;;;;2.27;0.50;;;;;;;22.96;100.00;99083.86;1696540;81;21050;-63
2022/07/14 06:31:04;;;;;;;3.15;0.45;;;;;;;23.14;100.00;99077.22;1716843;81;21175;-62
2022/07/14 06:33:32;;;;;;;2.50;0.40;;;;;;;23.41;100.00;99071.14;1735423;81;21113;-61
2022/07/14 06:36:01;;;;;;;0.93;0.40;;;;;;;23.47;100.00;99078.00;1719242;81;21098;-61
2022/07/14 06:38:27;;;;;;;1.47;0.30;;;;;;;23.41;100.00;99074.75;1725182;81;21054;-61
2022/07/14 06:40:54;;;;;;;0.98;0.35;;;;;;;23.51;100.00;99071.92;1685101;83;21007;-61
2022/07/14 06:43:22;;;;;;;5.67;0.45;;;;;;;23.52;100.00;99074.92;1720732;81;21516;-62
2022/07/14 06:45:53;;;;;;;1.77;0.78;;;;;;;23.68;100.00;99076.94;1724670;81;21038;-62
2022/07/14 06:48:23;;;;;;;1.67;0.50;;;;;;;23.90;100.00;99076.08;1719672;81;21620;-61
2022/07/14 06:50:48;;;;;;;4.80;0.60;;;;;;;23.93;100.00;99077.29;1712628;81;21040;-61
2022/07/14 06:53:16;;;;;;;3.62;0.50;;;;;;;23.73;100.00;99082.99;1746658;81;21471;-62
2022/07/14 06:55:43;;;;;;;1.65;0.42;;;;;;;23.69;100.00;99081.33;1724672;81;21542;-62
2022/07/14 06:58:09;;;;;;;1.35;0.50;;;;;;;23.84;100.00;99088.70;1723008;81;21589;-62
2022/07/14 07:00:36;;;;;;;1.35;0.47;;;;;;;24.21;100.00;99098.55;1716423;82;21034;-62
2022/07/14 07:03:11;;;;;;;1.12;0.60;;;;;;;24.31;100.00;99090.12;1731241;82;21059;-61
2022/07/14 07:08:25;;;;;;;2.17;0.40;;;;;;;24.32;100.00;99100.89;1721947;82;21079;-62
2022/07/14 07:11:10;;;;;;;1.50;0.50;;;;;;;24.26;100.00;99106.58;1727659;82;21015;-62
2022/07/14 07:13:39;;;;;;;3.45;0.50;;;;;;;23.68;100.00;99103.33;1731252;82;21063;-62
2022/07/14 07:16:07;;;;;;;2.02;0.60;;;;;;;23.38;100.00;99110.19;1717929;82;21059;-63
2022/07/14 07:18:35;;;;;;;2.77;0.50;;;;;;;23.50;100.00;99110.00;1723349;83;21457;-62
2022/07/14 07:21:01;;;;;;;2.65;0.80;;;;;;;23.68;100.00;99104.72;1722967;82;20963;-62
2022/07/14 07:23:30;;;;;;;2.25;0.50;;;;;;;23.62;100.00;99102.05;1724288;83;21008;-61
2022/07/14 07:25:56;;;;;;;2.85;0.75;;;;;;;23.75;100.00;99097.30;1719692;82;21043;-61
2022/07/14 07:28:23;;;;;;;1.45;0.50;;;;;;;23.90;100.00;99100.28;1710834;82;21078;-61
2022/07/14 07:30:49;;;;;;;1.40;0.60;;;;;;;24.17;100.00;99107.44;1715127;82;21549;-62
2022/07/14 07:33:16;;;;;;;1.95;0.55;;;;;;;24.42;100.00;99095.23;1719374;82;21093;-62
2022/07/14 07:35:45;;;;;;;1.42;0.65;;;;;;;24.53;100.00;99096.97;1721064;82;21358;-62
2022/07/14 07:38:12;;;;;;;1.52;0.40;;;;;;;24.87;100.00;99096.98;1722644;82;21110;-62
2022/07/14 07:40:38;;;;;;;0.82;0.35;;;;;;;25.17;100.00;99085.94;1721021;82;20968;-61
2022/07/14 07:43:05;;;;;;;0.70;0.40;;;;;;;25.36;100.00;99088.29;1724288;82;21062;-60
2022/07/14 07:45:31;;;;;;;1.77;0.40;;;;;;;25.65;100.00;99093.70;1721523;83;20983;-61
2022/07/14 07:48:00;;;;;;;0.80;0.40;;;;;;;25.52;100.00;99088.83;1697854;83;21042;-60
2022/07/14 07:50:27;;;;;;;1.65;0.57;;;;;;;24.91;100.00;99086.66;1719961;82;21013;-61
2022/07/14 07:52:53;;;;;;;1.85;0.40;;;;;;;24.52;100.00;99087.60;1723154;82;21083;-60
2022/07/14 07:55:20;;;;;;;1.02;0.55;;;;;;;24.82;100.00;99093.11;1704838;83;21495;-61
2022/07/14 07:57:46;;;;;;;4.50;1.55;;;;;;;24.85;100.00;99084.02;1689158;84;21087;-60
2022/07/14 08:00:13;;;;;;;3.20;0.68;;;;;;;24.50;100.00;99088.58;1694558;82;21374;-59
2022/07/14 08:02:52;;;;;;;2.42;0.60;;;;;;;24.10;100.00;99086.45;1714178;82;21602;-59
2022/07/14 08:05:22;;;;;;;14.15;12.68;;;;;;;24.04;100.00;99085.19;1715641;82;20989;-61
2022/07/14 08:07:52;;;;;;;4.15;2.02;;;;;;;23.84;100.00;99097.62;1718000;82;21051;-60
2022/07/14 08:10:20;;;;;;;5.42;3.92;;;;;;;23.64;100.00;99096.91;1717811;82;21035;-61
2022/07/14 08:12:48;;;;;;;1.95;1.20;;;;;;;23.44;100.00;99112.08;1712858;82;21047;-60
2022/07/14 08:15:15;;;;;;;17.65;11.65;;;;;;;23.34;100.00;99107.93;1711666;82;21605;-60
2022/07/14 08:17:43;;;;;;;15.53;9.63;;;;;;;23.43;100.00;99104.91;1710114;82;21086;-60
2022/07/14 08:20:10;;;;;;;3.45;1.20;;;;;;;23.67;100.00;99101.72;1709874;82;21526;-60
2022/07/14 08:22:37;;;;;;;5.15;2.98;;;;;;;24.05;100.00;99115.41;1694575;82;20985;-60
2022/07/14 08:25:06;;;;;;;7.25;3.62;;;;;;;24.56;100.00;99105.95;1722168;82;21075;-60
2022/07/14 08:27:33;;;;;;;4.53;2.80;;;;;;;25.02;100.00;99095.92;1719212;82;21566;-61
2022/07/14 08:30:00;;;;;;;3.25;1.65;;;;;;;25.33;100.00;99094.63;1706139;83;21035;-60
2022/07/14 08:32:45;;;;;;;2.00;0.65;;;;;;;25.31;100.00;99093.61;1698237;82;21546;-61
2022/07/14 08:35:15;;;;;;;2.75;1.20;;;;;;;25.38;100.00;99094.26;1703331;82;21585;-61
2022/07/14 08:37:42;;;;;;;3.22;1.17;;;;;;;25.14;100.00;99094.27;1695270;82;21036;-62
2022/07/14 08:40:12;;;;;;;7.15;3.42;;;;;;;25.00;100.00;99092.73;1709874;82;21063;-60
2022/07/14 08:42:45;;;;;;;6.30;3.30;;;;;;;24.86;100.00;99103.14;1709224;83;21051;-60
2022/07/14 08:45:17;;;;;;;4.83;2.50;;;;;;;24.59;100.00;99107.97;1708329;82;21102;-60
2022/07/14 08:47:45;;;;;;;2.20;0.80;;;;;;;24.52;100.00;99111.25;1705844;82;21003;-59
2022/07/14 08:50:18;;;;;;;2.35;0.90;;;;;;;24.84;100.00;99108.86;1712593;82;21090;-60
2022/07/14 08:52:44;;;;;;;3.40;0.88;;;;;;;25.31;100.00;99104.75;1716210;83;21051;-60
2022/07/14 08:55:15;;;;;;;3.27;1.02;;;;;;;25.36;100.00;99096.64;1709310;82;21542;-59
2022/07/14 08:57:41;;;;;;;2.77;0.80;;;;;;;25.23;100.00;99106.67;1704136;83;21501;-60
2022/07/14 09:00:11;;;;;;;9.03;4.80;;;;;;;24.94;100.00;99102.63;1707020;82;21044;-60
2022/07/14 09:02:40;;;;;;;3.72;1.50;;;;;;;24.47;100.00;99111.02;1719177;82;21039;-61
2022/07/14 09:05:09;;;;;;;5.78;2.40;;;;;;;24.07;100.00;99122.77;1706811;82;21674;-59
2022/07/14 09:07:37;;;;;;;9.23;5.92;;;;;;;23.82;100.00;99123.00;1682816;82;21058;-60
2022/07/14 09:10:11;;;;;;;9.10;4.83;;;;;;;23.59;100.00;99126.42;1701176;84;21123;-60
2022/07/14 09:12:37;;;;;;;9.20;4.12;;;;;;;23.40;100.00;99127.85;1698121;82;20995;-62
2022/07/14 09:18:00;;;;;;;12.18;6.37;;;;;;;23.18;100.00;99128.06;1708975;82;21716;-60
2022/07/14 09:20:30;;;;;;;4.58;2.15;;;;;;;23.30;100.00;99127.31;1697532;82;21048;-60
2022/07/14 09:22:58;;;;;;;2.67;1.30;;;;;;;23.53;100.00;99119.56;1705078;82;21495;-59
2022/07/14 09:25:28;;;;;;;2.90;1.22;;;;;;;23.77;100.00;99111.61;1714264;82;21038;-60
2022/07/14 09:27:55;;;;;;;3.55;1.35;;;;;;;23.96;100.00;99121.81;1707308;82;21029;-60
2022/07/14 09:30:24;;;;;;;3.83;1.65;;;;;;;23.97;100.00;99122.63;1708792;82;21063;-60
2022/07/14 09:32:58;;;;;;;2.30;1.10;;;;;;;23.77;100.00;99123.34;1708054;82;21035;-61
2022/07/14 09:35:41;;;;;;;3.12;2.12;;;;;;;23.49;100.00;99119.50;1715786;82;21012;-61
2022/07/14 09:38:19;;;;;;;8.05;3.60;;;;;;;23.47;100.00;99126.03;1717328;82;21044;-61
2022/07/14 09:40:47;;;;;;;4.95;1.47;;;;;;;23.51;100.00;99112.20;1706742;82;21495;-60
2022/07/14 09:43:14;;;;;;;2.90;1.80;;;;;;;23.43;100.00;99126.55;1718320;82;21087;-61
2022/07/14 09:45:46;;;;;;;3.52;1.30;;;;;;;23.47;100.00;99116.89;1723303;82;21059;-60
2022/07/14 09:48:16;;;;;;;4.03;2.00;;;;;;;23.49;100.00;99115.33;1705740;82;21141;-61
2022/07/14 09:51:03;;;;;;;3.15;1.70;;;;;;;23.53;100.00;99125.92;1703005;84;21008;-60
2022/07/14 09:53:31;;;;;;;2.30;1.80;;;;;;;23.49;100.00;99121.50;1703467;82;21074;-60
2022/07/14 09:56:04;;;;;;;3.83;2.60;;;;;;;23.49;100.00;99122.89;1707319;82;21033;-59
2022/07/14 09:58:51;;;;;;;4.97;2.67;;;;;;;23.49;100.00;99126.44;1714364;82;21578;-60
2022/07/14 10:01:32;;;;;;;4.30;1.50;;;;;;;23.34;100.00;99125.17;1705447;83;21102;-60
2022/07/14 10:03:59;;;;;;;3.52;1.20;;;;;;;23.29;100.00;99131.83;1709872;82;21056;-60
2022/07/14 10:06:27;;;;;;;3.30;1.37;;;;;;;23.65;100.00;99129.09;1696722;83;21001;-61
2022/07/14 10:08:57;;;;;;;13.40;7.83;;;;;;;23.65;100.00;99129.09;1717814;83;21619;-62
2022/07/14 10:11:24;;;;;;;8.90;3.85;;;;;;;23.87;100.00;99127.44;1718064;83;21027;-61
2022/07/14 10:13:50;;;;;;;10.03;6.47;;;;;;;24.21;100.00;99120.22;1715059;82;21105;-61
2022/07/14 10:16:20;;;;;;;8.05;3.12;;;;;;;24.21;100.00;99120.22;1710955;83;21028;-60
2022/07/14 10:18:47;;;;;;;15.90;7.12;;;;;;;24.30;100.00;99108.82;1687313;83;21091;-60
2022/07/14 10:21:14;;;;;;;3.85;1.50;;;;;;;24.26;100.00;99106.58;1716522;82;21016;-61
2022/07/14 10:23:42;;;;;;;7.75;3.33;;;;;;;24.24;100.00;99113.09;1708390;83;21086;-60
2022/07/14 10:26:10;;;;;;;5.72;2.55;;;;;;;24.20;100.00;99108.87;1709291;83;21074;-60
2022/07/14 10:28:39;;;;;;;6.45;3.08;;;;;;;24.03;100.00;99117.75;1707177;83;21138;-62
2022/07/14 10:31:23;;;;;;;1.95;1.17;;;;;;;23.96;100.00;99116.25;1704373;83;21023;-61
2022/07/14 10:34:18;;;;;;;4.58;1.40;;;;;;;24.15;100.00;99119.54;1710825;82;21629;-59
2022/07/14 10:37:11;;;;;;;19.45;9.30;;;;;;;24.45;100.00;99116.73;1700014;83;21027;-60
2022/07/14 10:39:49;;;;;;;3.92;1.95;;;;;;;24.62;100.00;99111.99;1712507;83;21494;-60
2022/07/14 10:42:57;;;;;;;53.38;26.02;;;;;;;24.80;100.00;99121.94;1706740;82;21006;-60
2022/07/14 10:45:25;;;;;;;6.87;3.75;;;;;;;24.78;100.00;99107.80;1680228;85;21071;-62
2022/07/14 10:47:53;;;;;;;6.62;3.37;;;;;;;24.81;100.00;99106.81;1656157;86;21027;-59
2022/07/14 10:50:23;;;;;;;4.87;2.17;;;;;;;24.73;100.00;99104.53;1652665;86;21071;-60
2022/07/14 10:53:05;;;;;;;3.22;1.65;;;;;;;24.68;100.00;99097.35;1654880;86;21051;-60
2022/07/14 10:55:35;;;;;;;10.08;5.45;;;;;;;24.56;100.00;99113.48;1634593;86;21075;-60
2022/07/14 10:58:10;;;;;;;5.58;2.58;;;;;;;24.46;100.00;99108.60;1634857;86;21554;-60
2022/07/14 11:00:55;;;;;;;3.42;1.47;;;;;;;24.57;100.00;99103.38;1647268;85;21015;-60
2022/07/14 11:03:26;;;;;;;3.00;1.17;;;;;;;24.90;100.00;99115.70;1641379;85;21151;-60
2022/07/14 11:06:12;;;;;;;2.77;1.82;;;;;;;25.19;100.00;99089.13;1637878;85;20982;-60
2022/07/14 11:08:49;;;;;;;2.65;1.77;;;;;;;25.35;100.00;99102.00;1642509;85;21084;-61
2022/07/14 11:11:23;;;;;;;2.15;1.35;;;;;;;25.34;100.00;99112.34;1645265;85;20974;-61
2022/07/14 11:14:12;;;;;;;3.12;1.62;;;;;;;25.30;100.00;99107.91;1610973;87;21106;-60
2022/07/14 11:16:52;;;;;;;2.90;1.15;;;;;;;25.42;100.00;99102.06;1616417;86;21476;-60
2022/07/14 11:19:38;;;;;;;4.12;1.42;;;;;;;25.34;100.00;99101.78;1647658;87;21087;-60
2022/07/14 11:22:19;;;;;;;3.80;1.10;;;;;;;25.31;100.00;99096.40;1648970;87;21001;-60
2022/07/14 11:24:58;;;;;;;3.33;1.30;;;;;;;25.47;100.00;99106.67;1648939;87;21618;-60
2022/07/14 11:27:36;;;;;;;1.92;0.90;;;;;;;25.59;100.00;99096.66;1648543;87;21069;-61
2022/07/14 11:30:22;;;;;;;1.67;0.95;;;;;;;25.64;100.00;99106.65;1634125;87;21215;-61
2022/07/14 11:33:07;;;;;;;4.47;1.62;;;;;;;25.49;94.88;99106.30;1635877;87;21003;-60
2022/07/14 11:38:43;;;;;;;2.60;1.20;;;;;;;25.19;100.00;99107.81;1652035;86;21210;-60
2022/07/14 11:41:12;;;;;;;4.03;1.70;;;;;;;25.23;100.00;99100.30;1629479;87;21709;-60
2022/07/14 11:43:50;;;;;;;2.35;1.15;;;;;;;25.18;100.00;99115.98;1641320;86;21146;-60
2022/07/14 11:46:20;;;;;;;4.17;1.27;;;;;;;25.15;100.00;99113.35;1639865;86;21578;-61
2022/07/14 11:49:04;;;;;;;7.72;1.40;;;;;;;25.22;100.00;99102.28;1623098;87;21059;-60
2022/07/14 11:51:31;;;;;;;1.72;1.05;;;;;;;25.21;100.00;99106.27;1645508;86;21633;-60
2022/07/14 11:54:01;;;;;;;3.45;1.20;;;;;;;25.18;95.81;99104.26;1637891;86;21154;-59
2022/07/14 11:56:30;;;;;;;2.60;0.85;;;;;;;25.11;88.69;99102.00;1642114;86;20976;-62